Ana Sayfa
METAR-TAF:

METAR-TAF

Havaalanları :

Sisam, Yunanistan

Enlem: 37-42N, Boylam: 026-55E, yükseklik: 2 m

Güncel hava durumu gözlemi

Rapor saat 12:20 UTC de 38 dakika önce yapıldı.
Rüzgar güney/güneybatıdan 12 kt
Sıcaklık 24°C
Nem 61%
Basınç 1025 hPa
Görüş mesafesi 10 km veya daha fazla
2000 ft yükseklikte az bulutlu

METAR: LGSM 241220Z 21012KT 9999 FEW020 24/16 Q1025

Saat: 15:58 (12:58 UTC)

Tahmin

Rapor saat 11:00 UTC de 1 saat ve 58 dakika önce yapıldı.
Ayın 24'si saat 12 UTC'den ayın 24'si saat 21 UTC'ye kadar geçerli Tahmin
Rüzgar güneydan 15 kt
Görüş mesafesi 10 km veya daha fazla
2000 ft yükseklikte az bulutlu

TAF: LGSM 241100Z 2412/2421 17015KT 9999 FEW020

4.000'den fazla havaalanı için hava durumu gözlemleri ve tahminleri (METAR ve TAF raporları).

Kullanılabilir istasyonlar harita üzerinde sarı ve kırmızı noktalarla gösterilir.

İstasyonun adını görmek için fareyi noktanın üzerinde gezdirin.

Sonrasında hava gözlem ve tahminlerini görmek için tıklayın.

Haritayı değiştirmek için: yaklaştırmak için siyah artı işaretli yeşil düğmeye ve uzaklaştırmak için de eksi işaretli düğmeye hızla tıklayın; bitişik haritalar için yeşil okları kullanın.


METAR-TAF: